Time;durP1;ratioP1;P1;durP2;ratioP2;P2;SDS_P1;SDS_P2;PMS_P1;PMS_P2;Temp;Humidity;BMP_temperature;BMP_pressure;BME280_temperature;BME280_humidity;BME280_pressure;Samples;Min_cycle;Max_cycle;Signal;HPM_P1;HPM_P2
2024/01/30 00:00:52;;;;;;;18.58;8.93;;;7.10;49.90;;;;;;5082610;28;20059;-65
2024/01/30 00:03:20;;;;;;;15.50;6.22;;;7.10;50.00;;;;;;5074427;28;20333;-65
2024/01/30 00:05:48;;;;;;;18.00;7.13;;;7.00;50.00;;;;;;5072555;28;20065;-66
2024/01/30 00:08:18;;;;;;;23.63;7.15;;;7.00;50.00;;;;;;5083114;28;20044;-66
2024/01/30 00:10:47;;;;;;;13.57;6.75;;;7.00;50.00;;;;;;5080173;28;20135;-66
2024/01/30 00:13:17;;;;;;;16.95;7.80;;;6.90;50.00;;;;;;5082691;28;20060;-66
2024/01/30 00:15:46;;;;;;;18.38;7.50;;;6.90;50.10;;;;;;5075813;28;20142;-65
2024/01/30 00:18:14;;;;;;;24.42;7.60;;;6.80;50.10;;;;;;5072326;28;20044;-63
2024/01/30 00:20:43;;;;;;;19.33;7.68;;;6.80;50.20;;;;;;5078583;28;20044;-66
2024/01/30 00:23:11;;;;;;;16.30;6.82;;;6.70;50.20;;;;;;5080444;28;20067;-66
2024/01/30 00:25:41;;;;;;;22.83;7.72;;;6.70;50.20;;;;;;5072067;28;20045;-65
2024/01/30 00:28:09;;;;;;;25.95;8.82;;;6.70;50.20;;;;;;5077990;28;20043;-65
2024/01/30 00:30:38;;;;;;;15.52;7.80;;;6.70;50.20;;;;;;5066817;28;20434;-65
2024/01/30 00:33:06;;;;;;;19.58;8.18;;;6.70;50.20;;;;;;5074869;28;20055;-66
2024/01/30 00:35:34;;;;;;;19.25;7.63;;;6.60;50.10;;;;;;5078096;28;20496;-64
2024/01/30 00:38:03;;;;;;;20.40;8.80;;;6.50;50.10;;;;;;5077896;28;20717;-65
2024/01/30 00:40:31;;;;;;;28.17;9.05;;;6.50;50.20;;;;;;5070258;28;20364;-63
2024/01/30 00:43:00;;;;;;;15.60;7.50;;;6.40;50.20;;;;;;5079934;28;20048;-65
2024/01/30 00:45:29;;;;;;;23.13;9.43;;;6.40;50.20;;;;;;5081952;28;20064;-65
2024/01/30 00:47:57;;;;;;;19.13;8.65;;;6.30;50.20;;;;;;5076182;28;20143;-66
2024/01/30 00:50:25;;;;;;;20.80;9.25;;;6.20;50.20;;;;;;5073621;28;20052;-65
2024/01/30 00:52:54;;;;;;;26.65;9.23;;;6.20;50.50;;;;;;5082883;28;20055;-66
2024/01/30 00:55:22;;;;;;;19.73;8.70;;;6.10;50.30;;;;;;5084172;28;20173;-65
2024/01/30 00:57:50;;;;;;;22.17;9.88;;;6.10;50.40;;;;;;5076417;28;20067;-66
2024/01/30 01:00:21;;;;;;;34.65;8.65;;;6.00;50.30;;;;;;5069324;28;20160;-65
2024/01/30 01:02:50;;;;;;;24.17;9.93;;;6.00;50.50;;;;;;5076760;28;20068;-64
2024/01/30 01:05:18;;;;;;;27.60;8.43;;;5.90;50.40;;;;;;5097658;27;20064;-65
2024/01/30 01:07:48;;;;;;;24.55;8.50;;;5.90;50.80;;;;;;5077772;28;20514;-65
2024/01/30 01:10:17;;;;;;;25.05;9.90;;;5.90;50.60;;;;;;5084041;28;20051;-63
2024/01/30 01:12:46;;;;;;;31.63;9.02;;;5.90;50.60;;;;;;5075408;28;20075;-65
2024/01/30 01:15:14;;;;;;;39.75;12.32;;;5.80;50.60;;;;;;5075059;28;20137;-76
2024/01/30 01:17:44;;;;;;;27.10;9.10;;;5.80;50.60;;;;;;5082726;27;20409;-65
2024/01/30 01:20:13;;;;;;;27.58;9.85;;;5.70;50.60;;;;;;5069730;28;20121;-65
2024/01/30 01:22:41;;;;;;;20.80;10.20;;;5.70;50.70;;;;;;5082515;28;20060;-66
2024/01/30 01:25:10;;;;;;;24.13;10.52;;;5.70;50.70;;;;;;5070586;28;20047;-65
2024/01/30 01:27:40;;;;;;;22.45;10.30;;;5.70;50.70;;;;;;5071236;28;20054;-66
2024/01/30 01:30:11;;;;;;;25.33;8.65;;;5.60;50.70;;;;;;5075852;28;20056;-65
2024/01/30 01:32:44;;;;;;;28.00;9.55;;;5.60;50.80;;;;;;5071001;28;20055;-65
2024/01/30 01:35:14;;;;;;;37.53;8.85;;;5.60;50.80;;;;;;5070712;28;20056;-65
2024/01/30 01:37:43;;;;;;;19.50;9.27;;;5.50;50.80;;;;;;5072655;28;20052;-66
2024/01/30 01:40:11;;;;;;;24.45;8.32;;;5.50;50.90;;;;;;5081504;28;20118;-67
2024/01/30 01:42:40;;;;;;;22.33;8.30;;;5.50;50.90;;;;;;5070987;28;20055;-64
2024/01/30 01:45:09;;;;;;;17.80;8.07;;;5.50;51.00;;;;;;5069867;28;20058;-64
2024/01/30 01:47:38;;;;;;;19.38;8.88;;;5.50;51.10;;;;;;5076865;28;20101;-66
2024/01/30 01:50:07;;;;;;;20.73;9.10;;;5.50;51.10;;;;;;5074668;28;20066;-65
2024/01/30 01:52:38;;;;;;;18.33;7.90;;;5.50;51.10;;;;;;5064008;28;20050;-63
2024/01/30 01:55:07;;;;;;;30.10;9.38;;;5.50;51.10;;;;;;5074302;28;20052;-66
2024/01/30 01:57:38;;;;;;;19.27;7.90;;;5.60;51.20;;;;;;5072570;28;20131;-64
2024/01/30 02:00:10;;;;;;;22.58;8.57;;;5.60;51.20;;;;;;5080512;28;20167;-70
2024/01/30 02:02:40;;;;;;;18.88;7.53;;;5.60;51.20;;;;;;5068112;28;20064;-65
2024/01/30 02:05:09;;;;;;;23.38;8.77;;;5.50;51.10;;;;;;5070053;28;20140;-65
2024/01/30 02:07:40;;;;;;;20.02;8.57;;;5.50;51.10;;;;;;5070437;28;20058;-64
2024/01/30 02:10:09;;;;;;;20.33;9.00;;;5.50;51.10;;;;;;5063736;28;20077;-66
2024/01/30 02:12:38;;;;;;;24.30;9.35;;;5.50;51.50;;;;;;5070994;28;20135;-63
2024/01/30 02:15:08;;;;;;;20.08;8.35;;;5.50;51.20;;;;;;5070729;28;20140;-65
2024/01/30 02:17:36;;;;;;;21.80;9.20;;;5.40;51.20;;;;;;5074162;28;20128;-66
2024/01/30 02:20:05;;;;;;;15.65;7.30;;;5.40;51.20;;;;;;5075597;28;20052;-80
2024/01/30 02:22:35;;;;;;;26.88;9.82;;;5.40;51.30;;;;;;5068820;28;20060;-65
2024/01/30 02:25:05;;;;;;;24.80;9.88;;;5.40;51.30;;;;;;5070142;28;20056;-65
2024/01/30 02:27:33;;;;;;;23.10;9.40;;;5.30;51.30;;;;;;5069527;28;20058;-65
2024/01/30 02:30:01;;;;;;;16.58;8.50;;;5.30;51.40;;;;;;5069418;28;20156;-66
2024/01/30 02:32:30;;;;;;;17.08;8.02;;;5.30;51.40;;;;;;5079438;28;20130;-66
2024/01/30 02:34:58;;;;;;;16.58;8.48;;;5.30;51.50;;;;;;5075257;28;20468;-64
2024/01/30 02:37:27;;;;;;;13.57;7.32;;;5.30;51.50;;;;;;5082625;28;20878;-66
2024/01/30 02:39:56;;;;;;;18.65;8.00;;;5.30;51.50;;;;;;5072270;28;20063;-65
2024/01/30 02:42:25;;;;;;;16.65;7.65;;;5.30;51.60;;;;;;5071857;28;20498;-65
2024/01/30 02:44:53;;;;;;;21.73;8.73;;;5.30;51.60;;;;;;5079225;28;20501;-65
2024/01/30 02:47:21;;;;;;;28.83;8.07;;;5.30;51.60;;;;;;5072057;28;20130;-65
2024/01/30 02:49:50;;;;;;;24.95;9.20;;;5.30;51.60;;;;;;5078551;28;20506;-67
2024/01/30 02:52:22;;;;;;;19.83;8.70;;;5.30;51.50;;;;;;5066595;28;20506;-66
2024/01/30 02:54:51;;;;;;;24.33;8.48;;;5.30;51.60;;;;;;5072758;28;20060;-64
2024/01/30 02:57:21;;;;;;;21.67;8.77;;;5.30;51.60;;;;;;5071050;28;20041;-66
2024/01/30 02:59:49;;;;;;;17.30;8.25;;;5.20;51.60;;;;;;5071798;28;20059;-65
2024/01/30 03:02:17;;;;;;;16.27;7.28;;;5.20;51.60;;;;;;5063211;28;20597;-65
2024/01/30 03:04:45;;;;;;;30.05;9.50;;;5.20;51.70;;;;;;5082170;28;20048;-65
2024/01/30 03:07:14;;;;;;;26.05;9.00;;;5.20;51.70;;;;;;5076211;28;20051;-66
2024/01/30 03:09:42;;;;;;;22.50;9.13;;;5.10;51.70;;;;;;5069438;28;20081;-66
2024/01/30 03:12:10;;;;;;;17.27;7.00;;;5.20;51.70;;;;;;5067755;28;20109;-67
2024/01/30 03:14:40;;;;;;;20.23;9.05;;;5.20;51.70;;;;;;5068776;28;20056;-65
2024/01/30 03:17:09;;;;;;;18.85;7.95;;;5.10;51.70;;;;;;5074771;28;20071;-65
2024/01/30 03:19:37;;;;;;;24.40;7.78;;;5.10;52.00;;;;;;5073154;28;20052;-67
2024/01/30 03:22:05;;;;;;;41.13;8.73;;;5.00;51.60;;;;;;5074451;28;20055;-67
2024/01/30 03:24:34;;;;;;;27.67;9.80;;;5.00;51.70;;;;;;5066917;28;20048;-73
2024/01/30 03:27:02;;;;;;;27.70;8.73;;;5.00;51.70;;;;;;5063887;28;20051;-66
2024/01/30 03:29:30;;;;;;;20.08;7.82;;;5.00;51.80;;;;;;5074568;28;20048;-65
2024/01/30 03:32:00;;;;;;;23.25;8.00;;;5.00;51.80;;;;;;5068570;28;20416;-65
2024/01/30 03:34:28;;;;;;;17.65;7.07;;;5.00;51.90;;;;;;5067620;28;20119;-63
2024/01/30 03:36:56;;;;;;;36.00;7.93;;;5.00;51.90;;;;;;5074605;28;20053;-66
2024/01/30 03:39:26;;;;;;;17.15;8.60;;;5.00;51.90;;;;;;5066151;28;20414;-67
2024/01/30 03:41:54;;;;;;;29.42;9.02;;;5.00;51.90;;;;;;5072678;28;20048;-66
2024/01/30 03:44:22;;;;;;;21.60;8.45;;;5.00;51.90;;;;;;5063586;28;20109;-68
2024/01/30 03:46:51;;;;;;;27.90;10.02;;;5.00;51.90;;;;;;5075766;28;20056;-66
2024/01/30 03:49:21;;;;;;;40.30;9.30;;;5.00;51.90;;;;;;5090005;28;20520;-78
2024/01/30 03:51:49;;;;;;;27.10;8.55;;;4.90;51.90;;;;;;5068798;28;20059;-66
2024/01/30 03:54:17;;;;;;;25.15;10.15;;;5.00;52.00;;;;;;5069934;28;20091;-67
2024/01/30 03:56:46;;;;;;;26.15;9.73;;;5.00;52.40;;;;;;5066034;28;20064;-66
2024/01/30 03:59:14;;;;;;;19.48;8.63;;;5.00;52.00;;;;;;5072632;28;20055;-64
2024/01/30 04:01:42;;;;;;;21.75;8.70;;;5.00;52.10;;;;;;5075015;28;20051;-74
2024/01/30 04:04:11;;;;;;;28.60;11.63;;;5.00;52.10;;;;;;5074920;28;20035;-66
2024/01/30 04:06:41;;;;;;;14.00;7.28;;;5.00;52.10;;;;;;5066156;28;20052;-65
2024/01/30 04:09:09;;;;;;;17.85;8.70;;;5.00;52.10;;;;;;5072027;28;20130;-66
2024/01/30 04:11:37;;;;;;;22.83;8.07;;;5.00;52.10;;;;;;5071267;28;20595;-64
2024/01/30 04:14:06;;;;;;;36.20;13.73;;;5.00;52.20;;;;;;5072714;28;20063;-65
2024/01/30 04:16:34;;;;;;;20.38;7.70;;;5.10;52.20;;;;;;5067394;28;20149;-65
2024/01/30 04:19:02;;;;;;;27.35;9.93;;;5.10;52.20;;;;;;5082155;28;20056;-65
2024/01/30 04:21:31;;;;;;;23.60;7.13;;;5.10;52.20;;;;;;5072916;28;20080;-66
2024/01/30 04:24:00;;;;;;;23.40;10.48;;;5.10;52.30;;;;;;5075074;28;20048;-66
2024/01/30 04:26:29;;;;;;;24.40;7.35;;;5.20;52.40;;;;;;5061140;28;20067;-83
2024/01/30 04:28:57;;;;;;;8.95;5.55;;;5.20;52.40;;;;;;5077970;28;20070;-66
2024/01/30 04:31:25;;;;;;;13.63;5.50;;;5.30;52.40;;;;;;5074328;28;20154;-66
2024/01/30 04:33:53;;;;;;;23.52;8.90;;;5.30;52.50;;;;;;5075596;28;20134;-65
2024/01/30 04:36:22;;;;;;;25.50;9.68;;;5.40;52.50;;;;;;5072331;27;20144;-67
2024/01/30 04:38:50;;;;;;;11.48;6.35;;;5.50;52.50;;;;;;5077016;28;20060;-67
2024/01/30 04:41:20;;;;;;;28.40;6.78;;;5.50;52.50;;;;;;5074764;28;20051;-81
2024/01/30 04:43:48;;;;;;;27.35;7.40;;;5.60;52.50;;;;;;5072306;28;20045;-65
2024/01/30 04:46:17;;;;;;;22.67;7.10;;;5.70;52.50;;;;;;5074658;28;20044;-64
2024/01/30 04:48:46;;;;;;;59.00;15.27;;;5.70;52.40;;;;;;5070555;28;20064;-66
2024/01/30 04:51:14;;;;;;;12.73;4.93;;;5.80;52.30;;;;;;5074800;28;20192;-67
2024/01/30 04:53:42;;;;;;;4.72;3.47;;;5.80;52.30;;;;;;5075036;28;20532;-65
2024/01/30 04:56:11;;;;;;;12.45;4.82;;;5.90;52.30;;;;;;5073896;28;20056;-66
2024/01/30 04:58:40;;;;;;;6.50;3.72;;;6.00;52.40;;;;;;5063599;28;20071;-67
2024/01/30 05:01:09;;;;;;;15.38;5.28;;;6.10;52.40;;;;;;5080795;28;20051;-62
2024/01/30 05:03:38;;;;;;;8.95;4.20;;;6.20;52.30;;;;;;5073583;28;20067;-64
2024/01/30 05:06:07;;;;;;;27.00;6.80;;;6.20;52.30;;;;;;5078536;28;20052;-66
2024/01/30 05:08:37;;;;;;;32.00;7.40;;;6.20;52.20;;;;;;5068590;28;20478;-67
2024/01/30 05:11:07;;;;;;;17.50;7.30;;;6.30;52.40;;;;;;5077388;28;20128;-65
2024/01/30 05:13:35;;;;;;;21.60;7.55;;;6.20;52.00;;;;;;5079769;28;20064;-66
2024/01/30 05:16:05;;;;;;;30.63;7.68;;;6.20;52.00;;;;;;5078320;28;20101;-66
2024/01/30 05:18:34;;;;;;;3.83;2.25;;;6.20;52.00;;;;;;5070060;28;20633;-75
2024/01/30 05:21:03;;;;;;;8.90;4.50;;;6.20;52.10;;;;;;5071848;28;20129;-66
2024/01/30 05:23:32;;;;;;;7.68;3.45;;;6.30;52.20;;;;;;5077476;28;20079;-65
2024/01/30 05:26:01;;;;;;;5.22;3.47;;;6.30;52.10;;;;;;5063242;28;20661;-66
2024/01/30 05:28:30;;;;;;;6.50;3.53;;;6.40;52.30;;;;;;5061164;28;20048;-75
2024/01/30 05:30:59;;;;;;;20.90;6.32;;;6.40;52.20;;;;;;5071070;28;20125;-66
2024/01/30 05:33:29;;;;;;;11.60;4.55;;;6.40;52.10;;;;;;5086681;28;20128;-67
2024/01/30 05:35:58;;;;;;;11.80;5.30;;;6.40;52.10;;;;;;5067304;28;20421;-66
2024/01/30 05:38:26;;;;;;;13.43;5.45;;;6.40;52.00;;;;;;5078190;28;20155;-67
2024/01/30 05:40:54;;;;;;;9.77;4.50;;;6.50;52.00;;;;;;5072529;28;20139;-66
2024/01/30 05:43:22;;;;;;;17.67;6.70;;;6.40;52.00;;;;;;5074957;28;20064;-66
2024/01/30 05:45:52;;;;;;;8.45;4.00;;;6.40;51.90;;;;;;5070232;28;20416;-67
2024/01/30 05:48:20;;;;;;;9.80;4.82;;;6.40;51.90;;;;;;5069519;28;20068;-68
2024/01/30 05:50:50;;;;;;;15.25;6.53;;;6.40;51.90;;;;;;5076140;28;20056;-67
2024/01/30 05:53:19;;;;;;;16.15;6.25;;;6.40;51.90;;;;;;5078854;28;20052;-67
2024/01/30 05:55:47;;;;;;;18.42;6.53;;;6.40;51.90;;;;;;5073340;28;20098;-68
2024/01/30 05:58:15;;;;;;;17.52;5.68;;;6.40;51.90;;;;;;5080825;28;20044;-65
2024/01/30 06:00:44;;;;;;;30.63;8.00;;;6.40;51.80;;;;;;5071389;28;20066;-67
2024/01/30 06:03:12;;;;;;;30.65;7.15;;;6.40;51.80;;;;;;5071919;28;20642;-68
2024/01/30 06:05:41;;;;;;;23.13;6.75;;;6.40;51.80;;;;;;5058814;28;20179;-66
2024/01/30 06:08:10;;;;;;;18.85;6.22;;;6.40;51.80;;;;;;5072752;28;20517;-66
2024/01/30 06:10:40;;;;;;;16.67;5.38;;;6.40;51.80;;;;;;5045970;28;20128;-66
2024/01/30 06:13:08;;;;;;;11.77;5.55;;;6.40;51.90;;;;;;5062515;28;20445;-67
2024/01/30 06:15:36;;;;;;;21.25;6.30;;;6.40;52.00;;;;;;5078461;28;20049;-65
2024/01/30 06:18:05;;;;;;;11.52;2.95;;;6.50;52.30;;;;;;5068079;28;20056;-67
2024/01/30 06:20:34;;;;;;;17.27;5.20;;;6.50;52.00;;;;;;5064736;28;20040;-68
2024/01/30 06:23:02;;;;;;;6.75;3.78;;;6.60;52.00;;;;;;5080296;28;20058;-68
2024/01/30 06:25:32;;;;;;;9.45;5.18;;;6.60;51.90;;;;;;5077524;28;20605;-68
2024/01/30 06:28:00;;;;;;;11.57;4.63;;;6.70;51.90;;;;;;5071714;28;20474;-68
2024/01/30 06:30:28;;;;;;;13.75;4.22;;;6.70;51.80;;;;;;5075644;27;20136;-66
2024/01/30 06:32:57;;;;;;;11.90;4.20;;;6.70;51.80;;;;;;5056299;28;20052;-64
2024/01/30 06:35:26;;;;;;;11.70;4.82;;;6.70;51.80;;;;;;5063919;28;20067;-65
2024/01/30 06:37:54;;;;;;;23.48;5.53;;;6.70;51.80;;;;;;5061760;28;20059;-65
2024/01/30 06:40:22;;;;;;;14.45;5.93;;;6.70;51.70;;;;;;5058277;28;20055;-69
2024/01/30 06:42:52;;;;;;;18.42;7.38;;;6.70;51.70;;;;;;5059706;28;20056;-72
2024/01/30 06:45:21;;;;;;;19.45;6.45;;;6.60;51.70;;;;;;5061905;28;20036;-64
2024/01/30 06:47:49;;;;;;;12.85;6.03;;;6.60;51.70;;;;;;5061237;28;20071;-66
2024/01/30 06:50:18;;;;;;;19.48;6.57;;;6.60;51.70;;;;;;5060500;28;20421;-65
2024/01/30 06:52:46;;;;;;;19.42;5.55;;;6.60;51.70;;;;;;5061839;28;20497;-66
2024/01/30 06:55:15;;;;;;;25.30;8.68;;;6.60;51.70;;;;;;5062730;28;20044;-65
2024/01/30 06:57:43;;;;;;;20.58;7.18;;;6.60;51.80;;;;;;5078151;28;20135;-66
2024/01/30 07:00:16;;;;;;;22.70;5.30;;;6.60;51.80;;;;;;5065219;28;20142;-64
2024/01/30 07:02:44;;;;;;;14.93;7.47;;;6.70;51.80;;;;;;5059075;28;20133;-64
2024/01/30 07:05:13;;;;;;;19.80;7.47;;;6.70;51.80;;;;;;5057129;28;20079;-64
2024/01/30 07:07:41;;;;;;;20.20;6.22;;;6.70;52.00;;;;;;5063544;28;20070;-66
2024/01/30 07:10:10;;;;;;;27.58;6.63;;;6.70;51.70;;;;;;5053625;28;20121;-65
2024/01/30 07:12:39;;;;;;;18.75;6.95;;;6.80;51.80;;;;;;5057793;28;20064;-65
2024/01/30 07:15:09;;;;;;;15.73;8.02;;;6.80;51.70;;;;;;5064803;28;20052;-65
2024/01/30 07:17:39;;;;;;;28.00;8.73;;;6.90;51.70;;;;;;5061814;28;20052;-63
2024/01/30 07:20:09;;;;;;;19.60;6.85;;;6.90;51.70;;;;;;5065672;28;20128;-64
2024/01/30 07:22:39;;;;;;;20.67;7.18;;;6.90;51.70;;;;;;5051281;28;20057;-64
2024/01/30 07:25:09;;;;;;;29.52;7.68;;;6.90;51.60;;;;;;5062116;28;20502;-64
2024/01/30 07:27:37;;;;;;;12.10;5.18;;;7.00;52.60;;;;;;5065985;28;20056;-62
2024/01/30 07:30:07;;;;;;;11.93;5.25;;;7.00;51.70;;;;;;5065532;28;20045;-62
2024/01/30 07:32:35;;;;;;;16.15;6.38;;;7.10;51.70;;;;;;5058529;28;20119;-65
2024/01/30 07:35:05;;;;;;;28.23;8.07;;;7.10;51.70;;;;;;5064286;28;20169;-65
2024/01/30 07:37:36;;;;;;;26.27;6.18;;;7.10;51.80;;;;;;5067443;28;20048;-61
2024/01/30 07:40:06;;;;;;;18.50;6.53;;;7.20;51.80;;;;;;5068348;28;20052;-65
2024/01/30 07:42:35;;;;;;;17.17;9.07;;;7.30;51.80;;;;;;5056520;28;20052;-64
2024/01/30 07:45:04;;;;;;;17.58;7.75;;;7.40;51.70;;;;;;5065468;28;20143;-61
2024/01/30 07:47:32;;;;;;;17.33;6.38;;;7.50;51.70;;;;;;5058585;28;20061;-69
2024/01/30 07:50:01;;;;;;;19.08;8.13;;;7.60;51.70;;;;;;5064666;28;20064;-64
2024/01/30 07:52:31;;;;;;;14.65;6.65;;;7.60;51.60;;;;;;5063639;28;20079;-65
2024/01/30 07:55:49;;;;;;;27.15;8.00;;;7.60;51.60;;;;;;5070032;28;20052;-64
2024/01/30 07:58:19;;;;;;;15.82;6.28;;;7.70;51.60;;;;;;5058242;28;20052;-65
2024/01/30 08:00:47;;;;;;;20.90;7.63;;;7.80;51.60;;;;;;5058948;28;20084;-64
2024/01/30 08:03:16;;;;;;;20.35;8.15;;;7.80;51.60;;;;;;5069314;28;20133;-64
2024/01/30 08:05:44;;;;;;;29.52;9.35;;;7.90;51.60;;;;;;5060825;28;20159;-63
2024/01/30 08:08:14;;;;;;;14.40;4.93;;;8.10;51.70;;;;;;5063508;28;20151;-64
2024/01/30 08:10:43;;;;;;;18.02;5.35;;;8.20;51.60;;;;;;5061825;28;20431;-62
2024/01/30 08:13:11;;;;;;;42.40;7.80;;;8.30;51.60;;;;;;5061953;28;20064;-64
2024/01/30 08:15:39;;;;;;;22.45;8.20;;;8.40;51.50;;;;;;5060109;28;20064;-65
2024/01/30 08:18:08;;;;;;;37.90;6.97;;;8.50;52.10;;;;;;5061008;28;20563;-62
2024/01/30 08:20:36;;;;;;;16.63;5.55;;;8.60;51.40;;;;;;5064793;28;20053;-63
2024/01/30 08:23:05;;;;;;;10.75;5.78;;;8.70;51.40;;;;;;5066827;28;20063;-63
2024/01/30 08:25:34;;;;;;;14.27;5.60;;;8.80;51.30;;;;;;5070027;28;20048;-64
2024/01/30 08:28:04;;;;;;;13.38;5.90;;;8.90;51.30;;;;;;5070823;28;20084;-63
2024/01/30 08:30:33;;;;;;;22.65;7.93;;;9.00;51.30;;;;;;5060534;28;20249;-63
2024/01/30 08:33:01;;;;;;;23.90;6.70;;;9.10;51.30;;;;;;5069412;28;20505;-63
2024/01/30 08:35:33;;;;;;;11.63;5.25;;;9.20;51.20;;;;;;5067889;28;20048;-65
2024/01/30 08:38:03;;;;;;;20.10;7.00;;;9.30;51.10;;;;;;5061644;28;20141;-63
2024/01/30 08:40:31;;;;;;;14.48;6.10;;;9.40;51.10;;;;;;5042437;28;20052;-64
2024/01/30 08:43:02;;;;;;;15.77;5.97;;;9.60;51.40;;;;;;5066255;28;20056;-65
2024/01/30 08:45:31;;;;;;;11.10;5.22;;;10.10;52.20;;;;;;5069495;28;20084;-64
2024/01/30 08:47:59;;;;;;;10.93;4.03;;;10.80;52.50;;;;;;5066748;28;20478;-66
2024/01/30 08:50:28;;;;;;;14.20;4.22;;;11.50;52.30;;;;;;5062935;28;20048;-74
2024/01/30 08:52:57;;;;;;;37.90;5.18;;;12.10;52.10;;;;;;5069553;28;21261;-67
2024/01/30 08:55:25;;;;;;;13.50;4.75;;;12.70;51.70;;;;;;5069585;28;20060;-66
2024/01/30 08:57:54;;;;;;;11.23;3.97;;;13.40;51.30;;;;;;5067757;28;20056;-65
2024/01/30 09:00:24;;;;;;;15.23;4.85;;;13.80;50.60;;;;;;5062990;28;20086;-64
2024/01/30 09:02:52;;;;;;;14.73;4.50;;;14.20;49.90;;;;;;5069391;28;20048;-62
2024/01/30 09:05:21;;;;;;;19.17;4.93;;;14.50;49.50;;;;;;5069590;27;20062;-64
2024/01/30 09:07:49;;;;;;;18.70;4.28;;;14.90;49.40;;;;;;5067003;28;20204;-65
2024/01/30 09:10:18;;;;;;;13.48;4.68;;;15.30;49.00;;;;;;5063680;28;20052;-64
2024/01/30 09:12:49;;;;;;;19.48;5.32;;;15.70;48.80;;;;;;5067999;28;20090;-66
2024/01/30 09:15:19;;;;;;;16.15;4.35;;;16.20;49.00;;;;;;5066628;28;20064;-65
2024/01/30 09:17:51;;;;;;;20.58;5.20;;;16.80;47.90;;;;;;5087854;28;20072;-65
2024/01/30 09:20:20;;;;;;;19.48;2.20;;;17.10;47.20;;;;;;5070725;28;20490;-64
2024/01/30 09:22:49;;;;;;;8.40;3.00;;;17.50;46.90;;;;;;5075600;28;20448;-66
2024/01/30 09:25:18;;;;;;;6.15;2.50;;;17.70;46.10;;;;;;5068102;28;20056;-66
2024/01/30 09:27:47;;;;;;;13.27;2.15;;;17.90;45.40;;;;;;5065989;28;20063;-64
2024/01/30 09:30:16;;;;;;;4.55;2.10;;;18.10;45.40;;;;;;5070012;28;20224;-66
2024/01/30 09:32:45;;;;;;;6.35;2.33;;;18.40;45.20;;;;;;5068262;28;20096;-66
2024/01/30 09:35:14;;;;;;;10.57;2.38;;;18.70;44.90;;;;;;5064848;28;20072;-66
2024/01/30 09:37:43;;;;;;;3.75;1.85;;;19.00;44.60;;;;;;5072237;28;20048;-65
2024/01/30 09:40:12;;;;;;;6.55;1.60;;;19.30;44.10;;;;;;5076727;28;20060;-65
2024/01/30 09:42:43;;;;;;;5.43;1.73;;;19.70;43.70;;;;;;5058205;28;21352;-65
2024/01/30 09:45:15;;;;;;;4.15;1.38;;;19.80;42.70;;;;;;5064591;28;20059;-66
2024/01/30 09:47:45;;;;;;;5.40;1.60;;;19.80;42.10;;;;;;5073098;28;20052;-65
2024/01/30 09:50:16;;;;;;;2.03;1.52;;;19.90;42.40;;;;;;5073752;28;20048;-73
2024/01/30 09:52:46;;;;;;;8.57;1.52;;;20.20;42.40;;;;;;5068319;28;20055;-66
2024/01/30 09:55:14;;;;;;;8.85;1.77;;;20.50;42.00;;;;;;5071753;28;20060;-64
2024/01/30 09:57:43;;;;;;;2.17;1.30;;;20.90;42.10;;;;;;5071902;28;20078;-66
2024/01/30 10:00:13;;;;;;;11.13;1.98;;;21.40;41.50;;;;;;5060132;28;20067;-69
2024/01/30 10:02:42;;;;;;;6.00;1.80;;;21.50;40.40;;;;;;5054889;28;20529;-65
2024/01/30 10:05:10;;;;;;;3.15;1.75;;;21.60;40.30;;;;;;5064709;28;20052;-65
2024/01/30 10:07:50;;;;;;;3.25;1.45;;;22.10;40.50;;;;;;5066673;28;20037;-64
2024/01/30 10:10:19;;;;;;;10.20;2.20;;;22.60;39.90;;;;;;5069242;28;20056;-65
2024/01/30 10:12:48;;;;;;;4.00;1.83;;;23.10;39.50;;;;;;5064450;28;20066;-66
2024/01/30 10:15:18;;;;;;;10.63;2.03;;;23.60;39.20;;;;;;5057283;28;20143;-66
2024/01/30 10:17:46;;;;;;;2.33;1.17;;;24.30;38.30;;;;;;5062883;28;20071;-65
2024/01/30 10:20:14;;;;;;;5.18;1.83;;;24.50;37.70;;;;;;5070360;28;20111;-75
2024/01/30 10:22:45;;;;;;;11.43;2.78;;;24.90;37.40;;;;;;5055253;28;20168;-65
2024/01/30 10:25:14;;;;;;;10.90;2.30;;;25.20;36.90;;;;;;5066127;28;20056;-65
2024/01/30 10:27:42;;;;;;;9.73;3.42;;;25.50;36.70;;;;;;5061794;28;20131;-65
2024/01/30 10:30:11;;;;;;;29.15;5.68;;;25.80;36.20;;;;;;5056838;28;20143;-65
2024/01/30 10:32:40;;;;;;;18.83;2.30;;;25.90;35.70;;;;;;5064294;27;20056;-65
2024/01/30 10:35:08;;;;;;;14.65;3.75;;;25.90;35.40;;;;;;5073525;28;20052;-66
2024/01/30 10:37:37;;;;;;;15.10;4.88;;;25.90;35.10;;;;;;5069403;28;20472;-66
2024/01/30 10:40:10;;;;;;;5.50;1.80;;;25.90;35.00;;;;;;5063214;28;20546;-66
2024/01/30 10:42:39;;;;;;;15.10;6.20;;;26.00;34.90;;;;;;5076123;28;20041;-66
2024/01/30 10:45:09;;;;;;;5.72;2.33;;;26.40;34.80;;;;;;5068603;28;20063;-66
2024/01/30 10:47:37;;;;;;;8.43;3.00;;;26.60;34.20;;;;;;5059048;28;20062;-67
2024/01/30 10:50:08;;;;;;;24.10;3.97;;;26.70;33.80;;;;;;5069766;28;20053;-64
2024/01/30 10:52:37;;;;;;;5.82;1.88;;;26.70;33.50;;;;;;5050923;28;20047;-69
2024/01/30 10:55:08;;;;;;;6.70;1.75;;;26.70;33.30;;;;;;5066154;28;20063;-69
2024/01/30 10:57:38;;;;;;;8.95;2.00;;;26.40;32.80;;;;;;5065519;28;20052;-67
2024/01/30 11:00:10;;;;;;;39.58;4.25;;;26.20;33.00;;;;;;5062950;28;20056;-68
2024/01/30 11:02:41;;;;;;;5.22;1.77;;;26.00;32.50;;;;;;5057074;28;21777;-68
2024/01/30 11:05:09;;;;;;;12.25;2.53;;;25.70;32.60;;;;;;5064296;28;20132;-69
2024/01/30 11:07:41;;;;;;;9.60;1.80;;;25.40;32.30;;;;;;5064037;28;20071;-68
2024/01/30 11:10:14;;;;;;;17.42;3.92;;;24.90;32.20;;;;;;5069249;28;20059;-67
2024/01/30 11:12:46;;;;;;;5.93;1.40;;;24.50;32.60;;;;;;5081414;28;21208;-68
2024/01/30 11:15:15;;;;;;;22.35;7.22;;;24.30;33.00;;;;;;5059704;28;20056;-70
2024/01/30 11:17:45;;;;;;;6.57;2.20;;;24.10;33.20;;;;;;5061722;28;20083;-70
2024/01/30 11:20:18;;;;;;;11.75;2.40;;;23.80;33.10;;;;;;5069498;28;20476;-75
2024/01/30 11:22:47;;;;;;;4.60;1.75;;;23.40;33.30;;;;;;5071028;28;20122;-68
2024/01/30 11:25:18;;;;;;;3.08;1.65;;;23.00;33.90;;;;;;5062058;28;20462;-70
2024/01/30 11:27:50;;;;;;;3.92;1.55;;;22.60;34.20;;;;;;5068162;28;20086;-67
2024/01/30 11:30:25;;;;;;;4.45;1.60;;;22.10;34.30;;;;;;5066815;28;20071;-67
2024/01/30 11:33:01;;;;;;;7.05;2.08;;;21.40;34.30;;;;;;5069814;28;20060;-68
2024/01/30 11:35:32;;;;;;;15.52;1.65;;;20.60;34.80;;;;;;5085762;28;20424;-67
2024/01/30 11:38:02;;;;;;;7.15;1.50;;;19.80;35.50;;;;;;5067692;28;20052;-65
2024/01/30 11:40:33;;;;;;;13.45;3.35;;;19.10;36.30;;;;;;5063054;28;20152;-67
2024/01/30 11:43:04;;;;;;;14.75;3.65;;;18.60;36.90;;;;;;5075194;28;20067;-67
2024/01/30 11:45:33;;;;;;;16.15;3.85;;;18.20;37.60;;;;;;5063606;28;20057;-69
2024/01/30 11:48:03;;;;;;;27.35;7.97;;;17.80;37.80;;;;;;5067284;28;20135;-68
2024/01/30 11:50:33;;;;;;;3.50;1.23;;;17.60;38.10;;;;;;5063282;28;20118;-70
2024/01/30 11:53:03;;;;;;;21.00;5.32;;;17.40;38.30;;;;;;5070850;28;21161;-68
2024/01/30 11:55:33;;;;;;;5.43;1.58;;;17.20;38.40;;;;;;5069441;28;20052;-68
2024/01/30 11:58:04;;;;;;;9.50;2.75;;;17.00;38.50;;;;;;5067934;28;20242;-67
2024/01/30 12:00:33;;;;;;;26.75;6.85;;;16.90;38.70;;;;;;5054953;28;20080;-68
2024/01/30 12:03:05;;;;;;;3.35;1.80;;;16.90;38.90;;;;;;5075375;28;20044;-68
2024/01/30 12:05:33;;;;;;;7.45;2.17;;;16.80;38.90;;;;;;5063450;28;20097;-65
2024/01/30 12:08:02;;;;;;;7.97;2.53;;;16.80;39.10;;;;;;5073844;28;20060;-67
2024/01/30 12:10:32;;;;;;;3.53;1.55;;;16.80;39.40;;;;;;5063920;28;20084;-68
2024/01/30 12:13:02;;;;;;;4.07;1.50;;;16.80;39.20;;;;;;5075306;28;20056;-67
2024/01/30 12:15:30;;;;;;;10.20;2.65;;;16.90;39.30;;;;;;5068834;28;20067;-68
2024/01/30 12:18:06;;;;;;;9.68;1.48;;;17.00;39.30;;;;;;5070789;28;20064;-66
2024/01/30 12:20:35;;;;;;;3.63;1.92;;;17.00;39.20;;;;;;5067705;28;20104;-65
2024/01/30 12:23:04;;;;;;;2.88;1.30;;;17.00;39.20;;;;;;5066385;28;20051;-69
2024/01/30 12:25:34;;;;;;;21.10;4.60;;;17.00;39.20;;;;;;5066540;28;20148;-70
2024/01/30 12:28:04;;;;;;;3.30;1.35;;;17.10;39.30;;;;;;5074952;28;20591;-71
2024/01/30 12:30:32;;;;;;;9.93;2.50;;;17.10;39.90;;;;;;5052681;28;20049;-70
2024/01/30 12:33:04;;;;;;;2.97;1.17;;;17.20;39.20;;;;;;5072135;28;20056;-70
2024/01/30 12:35:33;;;;;;;9.95;1.55;;;17.20;39.20;;;;;;5070404;28;20143;-82
2024/01/30 12:38:02;;;;;;;27.60;5.60;;;17.30;39.20;;;;;;5076201;28;20113;-70
2024/01/30 12:40:30;;;;;;;2.30;1.20;;;17.30;39.20;;;;;;5056115;28;20072;-70
2024/01/30 12:43:01;;;;;;;1.60;0.88;;;17.30;40.00;;;;;;5068140;28;20166;-70
2024/01/30 12:45:29;;;;;;;4.25;1.60;;;17.40;39.10;;;;;;5070596;28;20082;-72
2024/01/30 12:47:58;;;;;;;3.38;1.25;;;17.40;39.10;;;;;;5069151;28;20470;-70
2024/01/30 12:50:26;;;;;;;4.55;1.30;;;17.50;39.20;;;;;;5065029;28;20059;-71
2024/01/30 12:52:55;;;;;;;8.32;1.40;;;17.60;39.10;;;;;;5074207;28;20154;-70
2024/01/30 12:55:24;;;;;;;17.00;2.05;;;17.60;39.20;;;;;;5067050;28;20055;-70